sensor_id;sensor_type;location;lat;lon;timestamp;pressure;altitude;pressure_sealevel;temperature;humidity
78317;BME280;67572;50.930;18.276;2024-01-30T00:02:38;100683.22;;;3.14;69.61
78317;BME280;67572;50.930;18.276;2024-01-30T00:05:42;100685.81;;;3.18;69.99
78317;BME280;67572;50.930;18.276;2024-01-30T00:08:45;100681.66;;;3.00;69.50
78317;BME280;67572;50.930;18.276;2024-01-30T00:11:52;100682.50;;;3.04;69.66
78317;BME280;67572;50.930;18.276;2024-01-30T00:14:55;100680.06;;;2.89;70.63
78317;BME280;67572;50.930;18.276;2024-01-30T00:18:00;100671.75;;;3.21;69.99
78317;BME280;67572;50.930;18.276;2024-01-30T00:21:04;100675.50;;;3.01;69.75
78317;BME280;67572;50.930;18.276;2024-01-30T00:24:07;100675.44;;;3.08;70.18
78317;BME280;67572;50.930;18.276;2024-01-30T00:27:12;100673.84;;;2.94;70.29
78317;BME280;67572;50.930;18.276;2024-01-30T00:30:16;100674.63;;;3.01;70.02
78317;BME280;67572;50.930;18.276;2024-01-30T00:33:20;100684.94;;;3.16;70.30
78317;BME280;67572;50.930;18.276;2024-01-30T00:36:24;100680.66;;;3.11;70.58
78317;BME280;67572;50.930;18.276;2024-01-30T00:39:27;100677.16;;;3.09;70.72
78317;BME280;67572;50.930;18.276;2024-01-30T00:42:33;100680.66;;;3.11;70.26
78317;BME280;67572;50.930;18.276;2024-01-30T00:45:37;100680.72;;;3.06;69.73
78317;BME280;67572;50.930;18.276;2024-01-30T00:48:40;100671.69;;;3.25;70.25
78317;BME280;67572;50.930;18.276;2024-01-30T00:51:44;100670.91;;;3.19;69.94
78317;BME280;67572;50.930;18.276;2024-01-30T00:54:47;100677.16;;;3.10;70.43
78317;BME280;67572;50.930;18.276;2024-01-30T00:57:52;100674.31;;;3.24;69.78
78317;BME280;67572;50.930;18.276;2024-01-30T01:00:56;100677.63;;;3.38;69.76
78317;BME280;67572;50.930;18.276;2024-01-30T01:03:59;100667.31;;;3.26;69.75
78317;BME280;67572;50.930;18.276;2024-01-30T01:07:03;100671.19;;;2.97;71.17
78317;BME280;67572;50.930;18.276;2024-01-30T01:10:07;100665.69;;;3.14;70.44
78317;BME280;67572;50.930;18.276;2024-01-30T01:13:12;100658.75;;;3.09;70.60
78317;BME280;67572;50.930;18.276;2024-01-30T01:16:16;100659.22;;;3.38;70.00
78317;BME280;67572;50.930;18.276;2024-01-30T01:19:19;100662.97;;;3.22;69.91
78317;BME280;67572;50.930;18.276;2024-01-30T01:22:23;100655.34;;;3.02;70.37
78317;BME280;67572;50.930;18.276;2024-01-30T01:25:27;100653.75;;;2.92;70.81
78317;BME280;67572;50.930;18.276;2024-01-30T01:28:32;100659.69;;;3.06;69.82
78317;BME280;67572;50.930;18.276;2024-01-30T01:31:35;100659.41;;;3.24;69.94
78317;BME280;67572;50.930;18.276;2024-01-30T01:34:41;100655.16;;;3.16;70.21
78317;BME280;67572;50.930;18.276;2024-01-30T01:37:45;100660.56;;;3.06;70.88
78317;BME280;67572;50.930;18.276;2024-01-30T01:40:48;100652.06;;;2.86;70.95
78317;BME280;67572;50.930;18.276;2024-01-30T01:43:54;100657.22;;;2.95;71.08
78317;BME280;67572;50.930;18.276;2024-01-30T01:46:57;100650.09;;;3.02;70.97
78317;BME280;67572;50.930;18.276;2024-01-30T01:50:02;100652.81;;;2.97;70.89
78317;BME280;67572;50.930;18.276;2024-01-30T01:53:07;100645.72;;;3.01;70.33
78317;BME280;67572;50.930;18.276;2024-01-30T01:56:12;100641.00;;;3.24;70.61
78317;BME280;67572;50.930;18.276;2024-01-30T01:59:17;100646.59;;;3.03;71.05
78317;BME280;67572;50.930;18.276;2024-01-30T02:02:23;100649.47;;;2.83;70.72
78317;BME280;67572;50.930;18.276;2024-01-30T02:05:28;100645.06;;;2.85;71.66
78317;BME280;67572;50.930;18.276;2024-01-30T02:08:32;100641.59;;;2.83;70.96
78317;BME280;67572;50.930;18.276;2024-01-30T02:11:37;100650.13;;;3.00;71.39
78317;BME280;67572;50.930;18.276;2024-01-30T02:14:46;100652.19;;;2.77;72.19
78317;BME280;67572;50.930;18.276;2024-01-30T02:17:50;100651.00;;;3.02;71.95
78317;BME280;67572;50.930;18.276;2024-01-30T02:20:56;100648.56;;;2.86;71.51
78317;BME280;67572;50.930;18.276;2024-01-30T02:24:05;100646.00;;;2.81;72.31
78317;BME280;67572;50.930;18.276;2024-01-30T02:27:09;100647.00;;;2.71;72.58
78317;BME280;67572;50.930;18.276;2024-01-30T02:30:13;100640.75;;;2.81;71.79
78317;BME280;67572;50.930;18.276;2024-01-30T02:33:17;100642.44;;;2.85;72.04
78317;BME280;67572;50.930;18.276;2024-01-30T02:36:21;100636.41;;;2.77;71.77
78317;BME280;67572;50.930;18.276;2024-01-30T02:39:26;100636.50;;;2.69;72.35
78317;BME280;67572;50.930;18.276;2024-01-30T02:42:30;100629.47;;;2.74;71.81
78317;BME280;67572;50.930;18.276;2024-01-30T02:45:34;100629.38;;;2.81;71.89
78317;BME280;67572;50.930;18.276;2024-01-30T02:48:37;100632.22;;;2.62;72.28
78317;BME280;67572;50.930;18.276;2024-01-30T02:51:41;100631.03;;;2.86;71.78
78317;BME280;67572;50.930;18.276;2024-01-30T02:54:47;100641.50;;;2.91;71.58
78317;BME280;67572;50.930;18.276;2024-01-30T02:57:50;100632.13;;;2.73;71.74
78317;BME280;67572;50.930;18.276;2024-01-30T03:00:54;100632.91;;;2.78;71.63
78317;BME280;67572;50.930;18.276;2024-01-30T03:03:58;100635.59;;;2.73;71.92
78317;BME280;67572;50.930;18.276;2024-01-30T03:07:02;100633.84;;;2.74;72.83
78317;BME280;67572;50.930;18.276;2024-01-30T03:10:07;100634.75;;;2.70;72.07
78317;BME280;67572;50.930;18.276;2024-01-30T03:13:11;100639.78;;;2.88;72.27
78317;BME280;67572;50.930;18.276;2024-01-30T03:16:16;100643.31;;;2.87;72.11
78317;BME280;67572;50.930;18.276;2024-01-30T03:19:20;100649.31;;;2.94;71.93
78317;BME280;67572;50.930;18.276;2024-01-30T03:22:23;100646.88;;;2.82;72.54
78317;BME280;67572;50.930;18.276;2024-01-30T03:25:29;100646.72;;;2.92;71.46
78317;BME280;67572;50.930;18.276;2024-01-30T03:28:32;100645.19;;;2.76;72.31
78317;BME280;67572;50.930;18.276;2024-01-30T03:31:36;100643.31;;;2.87;71.68
78317;BME280;67572;50.930;18.276;2024-01-30T03:34:41;100640.97;;;2.63;72.98
78317;BME280;67572;50.930;18.276;2024-01-30T03:37:45;100635.88;;;2.52;73.23
78317;BME280;67572;50.930;18.276;2024-01-30T03:40:50;100638.50;;;2.49;73.65
78317;BME280;67572;50.930;18.276;2024-01-30T03:43:54;100625.16;;;2.69;72.60
78317;BME280;67572;50.930;18.276;2024-01-30T03:46:57;100626.81;;;2.76;73.09
78317;BME280;67572;50.930;18.276;2024-01-30T03:50:02;100630.38;;;2.70;72.47
78317;BME280;67572;50.930;18.276;2024-01-30T03:53:07;100625.09;;;2.73;72.45
78317;BME280;67572;50.930;18.276;2024-01-30T03:56:12;100625.28;;;2.57;73.34
78317;BME280;67572;50.930;18.276;2024-01-30T03:59:16;100621.63;;;2.70;73.51
78317;BME280;67572;50.930;18.276;2024-01-30T04:02:24;100628.84;;;2.53;73.68
78317;BME280;67572;50.930;18.276;2024-01-30T04:05:29;100624.22;;;2.73;73.50
78317;BME280;67572;50.930;18.276;2024-01-30T04:08:35;100626.28;;;2.48;73.35
78317;BME280;67572;50.930;18.276;2024-01-30T04:11:40;100628.81;;;2.56;73.94
78317;BME280;67572;50.930;18.276;2024-01-30T04:14:45;100625.41;;;2.47;74.61
78317;BME280;67572;50.930;18.276;2024-01-30T04:17:48;100626.97;;;2.62;73.53
78317;BME280;67572;50.930;18.276;2024-01-30T04:20:51;100631.41;;;2.59;73.60
78317;BME280;67572;50.930;18.276;2024-01-30T04:23:55;100627.97;;;2.54;73.23
78317;BME280;67572;50.930;18.276;2024-01-30T04:27:01;100626.22;;;2.53;73.69
78317;BME280;67572;50.930;18.276;2024-01-30T04:30:05;100623.56;;;2.54;73.51
78317;BME280;67572;50.930;18.276;2024-01-30T04:33:10;100620.19;;;2.44;74.16
78317;BME280;67572;50.930;18.276;2024-01-30T04:36:14;100621.06;;;2.45;74.35
78317;BME280;67572;50.930;18.276;2024-01-30T04:39:17;100622.66;;;2.60;73.74
78317;BME280;67572;50.930;18.276;2024-01-30T04:42:22;100620.81;;;2.63;73.30
78317;BME280;67572;50.930;18.276;2024-01-30T04:45:27;100622.41;;;2.76;73.48
78317;BME280;67572;50.930;18.276;2024-01-30T04:48:30;100620.03;;;2.58;73.60
78317;BME280;67572;50.930;18.276;2024-01-30T04:51:33;100628.00;;;2.49;73.24
78317;BME280;67572;50.930;18.276;2024-01-30T04:54:37;100634.06;;;2.57;73.43
78317;BME280;67572;50.930;18.276;2024-01-30T04:57:43;100641.78;;;2.68;73.74
78317;BME280;67572;50.930;18.276;2024-01-30T05:00:46;100637.34;;;2.74;73.23
78317;BME280;67572;50.930;18.276;2024-01-30T05:03:53;100631.31;;;2.66;73.53
78317;BME280;67572;50.930;18.276;2024-01-30T05:06:57;100633.16;;;2.58;73.86
78317;BME280;67572;50.930;18.276;2024-01-30T05:10:02;100633.94;;;2.66;73.78
78317;BME280;67572;50.930;18.276;2024-01-30T05:13:09;100633.22;;;2.54;73.74
78317;BME280;67572;50.930;18.276;2024-01-30T05:16:16;100641.94;;;2.57;73.76
78317;BME280;67572;50.930;18.276;2024-01-30T05:19:20;100640.19;;;2.55;73.21
78317;BME280;67572;50.930;18.276;2024-01-30T05:22:26;100634.22;;;2.43;74.08
78317;BME280;67572;50.930;18.276;2024-01-30T05:25:29;100624.44;;;2.58;74.45
78317;BME280;67572;50.930;18.276;2024-01-30T05:28:35;100626.19;;;2.57;73.65
78317;BME280;67572;50.930;18.276;2024-01-30T05:31:40;100625.22;;;2.63;73.04
78317;BME280;67572;50.930;18.276;2024-01-30T05:34:43;100636.78;;;2.48;74.35
78317;BME280;67572;50.930;18.276;2024-01-30T05:37:48;100633.81;;;2.75;73.56
78317;BME280;67572;50.930;18.276;2024-01-30T05:40:52;100633.56;;;2.94;72.38
78317;BME280;67572;50.930;18.276;2024-01-30T05:43:57;100631.75;;;2.99;72.65
78317;BME280;67572;50.930;18.276;2024-01-30T05:47:00;100631.84;;;2.93;72.38
78317;BME280;67572;50.930;18.276;2024-01-30T05:50:05;100631.03;;;2.88;72.11
78317;BME280;67572;50.930;18.276;2024-01-30T05:53:09;100633.59;;;2.92;72.18
78317;BME280;67572;50.930;18.276;2024-01-30T05:56:13;100641.44;;;2.94;72.00
78317;BME280;67572;50.930;18.276;2024-01-30T05:59:19;100636.28;;;2.88;72.66
78317;BME280;67572;50.930;18.276;2024-01-30T06:02:22;100640.81;;;2.76;72.93
78317;BME280;67572;50.930;18.276;2024-01-30T06:05:26;100639.28;;;2.59;72.77
78317;BME280;67572;50.930;18.276;2024-01-30T06:08:30;100638.94;;;2.85;71.74
78317;BME280;67572;50.930;18.276;2024-01-30T06:11:33;100645.47;;;2.53;72.86
78317;BME280;67572;50.930;18.276;2024-01-30T06:14:40;100637.31;;;2.76;73.34
78317;BME280;67572;50.930;18.276;2024-01-30T06:17:48;100648.78;;;2.69;72.83
78317;BME280;67572;50.930;18.276;2024-01-30T06:20:52;100647.09;;;2.63;72.96
78317;BME280;67572;50.930;18.276;2024-01-30T06:23:55;100648.81;;;2.67;72.67
78317;BME280;67572;50.930;18.276;2024-01-30T06:26:59;100653.50;;;2.39;73.26
78317;BME280;67572;50.930;18.276;2024-01-30T06:30:05;100655.97;;;2.53;73.30
78317;BME280;67572;50.930;18.276;2024-01-30T06:33:11;100642.81;;;2.58;72.93
78317;BME280;67572;50.930;18.276;2024-01-30T06:36:15;100648.94;;;2.55;73.79
78317;BME280;67572;50.930;18.276;2024-01-30T06:39:19;100647.94;;;2.67;73.19
78317;BME280;67572;50.930;18.276;2024-01-30T06:42:22;100644.72;;;2.43;73.63
78317;BME280;67572;50.930;18.276;2024-01-30T06:45:27;100643.91;;;2.37;73.57
78317;BME280;67572;50.930;18.276;2024-01-30T06:48:31;100638.34;;;2.63;73.77
78317;BME280;67572;50.930;18.276;2024-01-30T06:51:35;100649.84;;;2.54;72.66
78317;BME280;67572;50.930;18.276;2024-01-30T06:54:38;100641.88;;;2.62;72.96
78317;BME280;67572;50.930;18.276;2024-01-30T06:57:42;100647.19;;;2.56;72.25
78317;BME280;67572;50.930;18.276;2024-01-30T07:00:47;100648.94;;;2.55;72.60
78317;BME280;67572;50.930;18.276;2024-01-30T07:03:51;100648.00;;;2.61;72.89
78317;BME280;67572;50.930;18.276;2024-01-30T07:06:54;100644.50;;;2.60;72.90
78317;BME280;67572;50.930;18.276;2024-01-30T07:09:59;100650.28;;;2.87;71.72
78317;BME280;67572;50.930;18.276;2024-01-30T07:13:03;100645.03;;;2.87;71.48
78317;BME280;67572;50.930;18.276;2024-01-30T07:16:09;100644.25;;;2.82;71.12
78317;BME280;67572;50.930;18.276;2024-01-30T07:19:12;100646.00;;;2.81;71.22
78317;BME280;67572;50.930;18.276;2024-01-30T07:22:16;100640.19;;;2.58;71.62
78317;BME280;67572;50.930;18.276;2024-01-30T07:25:19;100648.63;;;2.79;71.00
78317;BME280;67572;50.930;18.276;2024-01-30T07:28:23;100658.28;;;2.81;70.98
78317;BME280;67572;50.930;18.276;2024-01-30T07:31:28;100652.06;;;2.88;70.98
78317;BME280;67572;50.930;18.276;2024-01-30T07:34:35;100650.16;;;2.97;70.85
78317;BME280;67572;50.930;18.276;2024-01-30T07:37:54;100645.72;;;3.02;70.05
78317;BME280;67572;50.930;18.276;2024-01-30T07:40:59;100653.47;;;3.13;70.29
78317;BME280;67572;50.930;18.276;2024-01-30T07:44:02;100656.38;;;2.92;70.30
78317;BME280;67572;50.930;18.276;2024-01-30T07:47:07;100656.84;;;3.21;69.57
78317;BME280;67572;50.930;18.276;2024-01-30T07:50:11;100654.13;;;3.27;68.62
78317;BME280;67572;50.930;18.276;2024-01-30T07:53:14;100659.44;;;3.23;68.42
78317;BME280;67572;50.930;18.276;2024-01-30T07:56:18;100648.66;;;3.41;68.50
78317;BME280;67572;50.930;18.276;2024-01-30T07:59:21;100656.47;;;3.46;67.93
78317;BME280;67572;50.930;18.276;2024-01-30T08:02:29;100656.19;;;3.62;68.22
78317;BME280;67572;50.930;18.276;2024-01-30T08:05:32;100650.81;;;3.72;67.45
78317;BME280;67572;50.930;18.276;2024-01-30T08:08:36;100649.44;;;3.48;67.35
78317;BME280;67572;50.930;18.276;2024-01-30T08:11:40;100644.50;;;3.82;67.13
78317;BME280;67572;50.930;18.276;2024-01-30T08:14:43;100642.63;;;3.88;66.65
78317;BME280;67572;50.930;18.276;2024-01-30T08:17:48;100652.59;;;3.68;67.02
78317;BME280;67572;50.930;18.276;2024-01-30T08:20:58;100652.22;;;3.91;66.41
78317;BME280;67572;50.930;18.276;2024-01-30T08:24:02;100646.13;;;3.89;66.35
78317;BME280;67572;50.930;18.276;2024-01-30T08:27:06;100644.13;;;4.03;65.57
78317;BME280;67572;50.930;18.276;2024-01-30T08:30:12;100642.44;;;4.01;65.55
78317;BME280;67572;50.930;18.276;2024-01-30T08:33:16;100645.38;;;4.32;64.66
78317;BME280;67572;50.930;18.276;2024-01-30T08:36:20;100629.41;;;4.39;63.93
78317;BME280;67572;50.930;18.276;2024-01-30T08:39:23;100644.59;;;4.25;64.23
78317;BME280;67572;50.930;18.276;2024-01-30T08:42:27;100637.16;;;4.45;63.48
78317;BME280;67572;50.930;18.276;2024-01-30T08:45:30;100633.44;;;4.57;63.03
78317;BME280;67572;50.930;18.276;2024-01-30T08:48:36;100641.13;;;4.68;62.71
78317;BME280;67572;50.930;18.276;2024-01-30T08:51:40;100636.50;;;4.79;62.66
78317;BME280;67572;50.930;18.276;2024-01-30T08:54:44;100630.63;;;4.66;62.46
78317;BME280;67572;50.930;18.276;2024-01-30T08:57:49;100633.72;;;4.87;61.67
78317;BME280;67572;50.930;18.276;2024-01-30T09:00:54;100631.69;;;4.99;61.45
78317;BME280;67572;50.930;18.276;2024-01-30T09:03:59;100636.25;;;4.91;61.64
78317;BME280;67572;50.930;18.276;2024-01-30T09:07:03;100634.50;;;5.31;61.05
78317;BME280;67572;50.930;18.276;2024-01-30T09:10:08;100633.16;;;5.11;60.58
78317;BME280;67572;50.930;18.276;2024-01-30T09:13:16;100623.84;;;5.34;59.78
78317;BME280;67572;50.930;18.276;2024-01-30T09:16:19;100624.84;;;5.29;60.73
78317;BME280;67572;50.930;18.276;2024-01-30T09:19:24;100628.53;;;5.60;59.55
78317;BME280;67572;50.930;18.276;2024-01-30T09:22:28;100619.72;;;5.61;58.85
78317;BME280;67572;50.930;18.276;2024-01-30T09:25:32;100612.31;;;5.75;58.44
78317;BME280;67572;50.930;18.276;2024-01-30T09:28:36;100620.72;;;5.89;58.49
78317;BME280;67572;50.930;18.276;2024-01-30T09:31:43;100619.00;;;5.88;58.02
78317;BME280;67572;50.930;18.276;2024-01-30T09:34:47;100617.22;;;5.89;57.88
78317;BME280;67572;50.930;18.276;2024-01-30T09:37:51;100618.09;;;5.91;57.77
78317;BME280;67572;50.930;18.276;2024-01-30T09:40:55;100617.72;;;6.04;56.78
78317;BME280;67572;50.930;18.276;2024-01-30T09:44:01;100619.53;;;6.02;56.54
78317;BME280;67572;50.930;18.276;2024-01-30T09:47:06;100625.50;;;6.43;56.06
78317;BME280;67572;50.930;18.276;2024-01-30T09:50:12;100617.78;;;6.66;55.90
78317;BME280;67572;50.930;18.276;2024-01-30T09:53:16;100627.59;;;6.61;54.34
78317;BME280;67572;50.930;18.276;2024-01-30T09:56:20;100621.41;;;6.62;54.52
78317;BME280;67572;50.930;18.276;2024-01-30T09:59:25;100620.41;;;6.66;54.01
78317;BME280;67572;50.930;18.276;2024-01-30T10:02:31;100607.66;;;6.51;53.71
78317;BME280;67572;50.930;18.276;2024-01-30T10:05:36;100605.84;;;6.83;53.56
78317;BME280;67572;50.930;18.276;2024-01-30T10:08:42;100608.84;;;6.71;52.50
78317;BME280;67572;50.930;18.276;2024-01-30T10:11:45;100603.81;;;6.91;52.92
78317;BME280;67572;50.930;18.276;2024-01-30T10:14:49;100598.66;;;6.86;51.99
78317;BME280;67572;50.930;18.276;2024-01-30T10:17:52;100606.00;;;6.77;52.44
78317;BME280;67572;50.930;18.276;2024-01-30T10:20:58;100595.88;;;7.20;51.39
78317;BME280;67572;50.930;18.276;2024-01-30T10:24:02;100597.03;;;7.10;51.82
78317;BME280;67572;50.930;18.276;2024-01-30T10:27:06;100585.53;;;7.13;50.36
78317;BME280;67572;50.930;18.276;2024-01-30T10:30:10;100585.53;;;7.39;51.50
78317;BME280;67572;50.930;18.276;2024-01-30T10:33:14;100581.00;;;7.16;50.38
78317;BME280;67572;50.930;18.276;2024-01-30T10:36:24;100582.91;;;7.39;49.98
78317;BME280;67572;50.930;18.276;2024-01-30T10:39:31;100581.97;;;7.42;50.28
78317;BME280;67572;50.930;18.276;2024-01-30T10:42:42;100583.31;;;7.80;50.33
78317;BME280;67572;50.930;18.276;2024-01-30T10:45:48;100579.09;;;7.99;49.91
78317;BME280;67572;50.930;18.276;2024-01-30T10:48:57;100574.84;;;7.95;50.97
78317;BME280;67572;50.930;18.276;2024-01-30T10:52:04;100573.50;;;8.09;49.56
78317;BME280;67572;50.930;18.276;2024-01-30T10:55:09;100564.63;;;8.10;49.49
78317;BME280;67572;50.930;18.276;2024-01-30T10:58:16;100570.69;;;7.88;48.47
78317;BME280;67572;50.930;18.276;2024-01-30T11:01:21;100570.94;;;8.05;49.08
78317;BME280;67572;50.930;18.276;2024-01-30T11:04:26;100565.59;;;8.32;48.42
78317;BME280;67572;50.930;18.276;2024-01-30T11:07:35;100562.16;;;8.53;47.41
78317;BME280;67572;50.930;18.276;2024-01-30T11:10:45;100561.59;;;7.95;48.23
78317;BME280;67572;50.930;18.276;2024-01-30T11:13:50;100547.03;;;8.09;47.73
78317;BME280;67572;50.930;18.276;2024-01-30T11:16:56;100553.75;;;8.17;47.72
78317;BME280;67572;50.930;18.276;2024-01-30T11:20:00;100545.25;;;8.32;47.62
78317;BME280;67572;50.930;18.276;2024-01-30T11:23:04;100542.34;;;8.40;47.09
78317;BME280;67572;50.930;18.276;2024-01-30T11:26:10;100538.03;;;8.83;46.75
78317;BME280;67572;50.930;18.276;2024-01-30T11:29:14;100526.84;;;8.53;46.31
78317;BME280;67572;50.930;18.276;2024-01-30T11:32:22;100536.56;;;8.52;46.82
78317;BME280;67572;50.930;18.276;2024-01-30T11:35:26;100529.13;;;8.85;45.62
78317;BME280;67572;50.930;18.276;2024-01-30T11:38:33;100527.81;;;8.74;46.65
78317;BME280;67572;50.930;18.276;2024-01-30T11:41:38;100522.06;;;8.63;46.79
78317;BME280;67572;50.930;18.276;2024-01-30T11:44:46;100521.97;;;8.87;46.08
78317;BME280;67572;50.930;18.276;2024-01-30T11:47:53;100511.91;;;8.74;46.15
78317;BME280;67572;50.930;18.276;2024-01-30T11:50:57;100515.94;;;8.60;46.45
78317;BME280;67572;50.930;18.276;2024-01-30T11:54:02;100499.44;;;8.98;45.99
78317;BME280;67572;50.930;18.276;2024-01-30T11:57:05;100505.56;;;8.78;45.73
78317;BME280;67572;50.930;18.276;2024-01-30T12:00:14;100504.94;;;8.71;46.45
78317;BME280;67572;50.930;18.276;2024-01-30T12:03:18;100500.50;;;8.72;45.98
78317;BME280;67572;50.930;18.276;2024-01-30T12:06:22;100498.13;;;8.64;46.04
78317;BME280;67572;50.930;18.276;2024-01-30T12:09:27;100494.50;;;9.10;45.72
78317;BME280;67572;50.930;18.276;2024-01-30T12:12:31;100489.03;;;8.71;45.62
78317;BME280;67572;50.930;18.276;2024-01-30T12:15:35;100483.03;;;8.66;45.09
78317;BME280;67572;50.930;18.276;2024-01-30T12:18:39;100489.94;;;9.14;45.19
78317;BME280;67572;50.930;18.276;2024-01-30T12:21:43;100482.28;;;9.06;44.77
78317;BME280;67572;50.930;18.276;2024-01-30T12:24:48;100479.53;;;9.09;45.37
78317;BME280;67572;50.930;18.276;2024-01-30T12:27:52;100478.28;;;9.18;45.19
78317;BME280;67572;50.930;18.276;2024-01-30T12:30:56;100475.09;;;8.88;44.58
78317;BME280;67572;50.930;18.276;2024-01-30T12:34:00;100465.50;;;8.84;44.61
78317;BME280;67572;50.930;18.276;2024-01-30T12:37:04;100465.69;;;9.23;44.75
78317;BME280;67572;50.930;18.276;2024-01-30T12:40:11;100470.63;;;9.10;44.50
78317;BME280;67572;50.930;18.276;2024-01-30T12:43:17;100462.53;;;9.56;44.47
78317;BME280;67572;50.930;18.276;2024-01-30T12:46:35;100459.38;;;9.26;43.84
78317;BME280;67572;50.930;18.276;2024-01-30T12:49:39;100456.00;;;9.42;43.91
78317;BME280;67572;50.930;18.276;2024-01-30T12:52:43;100447.69;;;9.09;43.28
78317;BME280;67572;50.930;18.276;2024-01-30T12:55:52;100452.00;;;9.12;44.17
78317;BME280;67572;50.930;18.276;2024-01-30T12:58:56;100450.28;;;8.89;44.96
78317;BME280;67572;50.930;18.276;2024-01-30T13:02:01;100447.94;;;9.03;43.67
78317;BME280;67572;50.930;18.276;2024-01-30T13:05:05;100448.97;;;8.99;44.27
78317;BME280;67572;50.930;18.276;2024-01-30T13:08:10;100434.91;;;8.97;44.17
78317;BME280;67572;50.930;18.276;2024-01-30T13:11:15;100438.28;;;9.23;44.66
78317;BME280;67572;50.930;18.276;2024-01-30T13:14:22;100441.13;;;9.18;45.20
78317;BME280;67572;50.930;18.276;2024-01-30T13:17:26;100445.56;;;9.17;44.37
78317;BME280;67572;50.930;18.276;2024-01-30T13:20:30;100437.16;;;8.64;44.58
78317;BME280;67572;50.930;18.276;2024-01-30T13:23:34;100429.50;;;8.78;44.56
78317;BME280;67572;50.930;18.276;2024-01-30T13:26:39;100436.84;;;8.94;44.30
78317;BME280;67572;50.930;18.276;2024-01-30T13:29:43;100443.31;;;8.86;45.14
78317;BME280;67572;50.930;18.276;2024-01-30T13:32:46;100435.75;;;9.20;44.49
78317;BME280;67572;50.930;18.276;2024-01-30T13:35:50;100436.84;;;8.72;44.24
78317;BME280;67572;50.930;18.276;2024-01-30T13:38:53;100433.88;;;8.79;44.40
78317;BME280;67572;50.930;18.276;2024-01-30T13:41:58;100433.97;;;8.78;44.77
78317;BME280;67572;50.930;18.276;2024-01-30T13:45:02;100427.78;;;8.77;44.59
78317;BME280;67572;50.930;18.276;2024-01-30T13:48:06;100435.63;;;8.80;45.16
78317;BME280;67572;50.930;18.276;2024-01-30T13:51:09;100422.25;;;8.61;45.01
78317;BME280;67572;50.930;18.276;2024-01-30T13:54:15;100439.06;;;8.82;44.56
78317;BME280;67572;50.930;18.276;2024-01-30T13:57:21;100439.13;;;8.81;45.04
78317;BME280;67572;50.930;18.276;2024-01-30T14:00:24;100433.66;;;8.64;45.08
78317;BME280;67572;50.930;18.276;2024-01-30T14:03:31;100434.06;;;8.75;44.92
78317;BME280;67572;50.930;18.276;2024-01-30T14:06:34;100423.75;;;8.67;44.64
78317;BME280;67572;50.930;18.276;2024-01-30T14:09:41;100417.50;;;8.48;45.15
78317;BME280;67572;50.930;18.276;2024-01-30T14:12:46;100420.94;;;8.72;45.40
78317;BME280;67572;50.930;18.276;2024-01-30T14:15:50;100416.00;;;8.17;46.12
78317;BME280;67572;50.930;18.276;2024-01-30T14:18:54;100412.19;;;8.48;46.46
78317;BME280;67572;50.930;18.276;2024-01-30T14:21:58;100414.44;;;8.12;47.13
78317;BME280;67572;50.930;18.276;2024-01-30T14:25:02;100419.84;;;8.55;46.14
78317;BME280;67572;50.930;18.276;2024-01-30T14:28:08;100416.81;;;8.65;45.85
78317;BME280;67572;50.930;18.276;2024-01-30T14:31:12;100413.66;;;8.55;46.03
78317;BME280;67572;50.930;18.276;2024-01-30T14:34:16;100419.44;;;7.96;47.24
78317;BME280;67572;50.930;18.276;2024-01-30T14:37:21;100412.72;;;7.87;47.14
78317;BME280;67572;50.930;18.276;2024-01-30T14:40:25;100424.03;;;7.67;47.18
78317;BME280;67572;50.930;18.276;2024-01-30T14:43:32;100414.44;;;7.65;47.31
78317;BME280;67572;50.930;18.276;2024-01-30T14:46:36;100406.16;;;7.24;48.59
78317;BME280;67572;50.930;18.276;2024-01-30T14:49:40;100416.47;;;7.32;48.85
78317;BME280;67572;50.930;18.276;2024-01-30T14:52:43;100407.84;;;7.27;49.55
78317;BME280;67572;50.930;18.276;2024-01-30T14:55:47;100405.34;;;7.22;49.34
78317;BME280;67572;50.930;18.276;2024-01-30T14:58:52;100410.31;;;7.31;49.15
78317;BME280;67572;50.930;18.276;2024-01-30T15:01:55;100401.19;;;7.15;49.41
78317;BME280;67572;50.930;18.276;2024-01-30T15:05:00;100406.69;;;7.09;49.93
78317;BME280;67572;50.930;18.276;2024-01-30T15:08:05;100400.47;;;7.10;49.10
78317;BME280;67572;50.930;18.276;2024-01-30T15:11:11;100416.66;;;7.01;50.18
78317;BME280;67572;50.930;18.276;2024-01-30T15:14:16;100402.63;;;6.99;49.20
78317;BME280;67572;50.930;18.276;2024-01-30T15:17:19;100411.41;;;6.99;49.37
78317;BME280;67572;50.930;18.276;2024-01-30T15:20:23;100412.28;;;6.73;50.03
78317;BME280;67572;50.930;18.276;2024-01-30T15:23:26;100405.75;;;6.57;50.52
78317;BME280;67572;50.930;18.276;2024-01-30T15:26:32;100418.69;;;6.66;50.98
78317;BME280;67572;50.930;18.276;2024-01-30T15:29:37;100424.06;;;6.35;52.13
78317;BME280;67572;50.930;18.276;2024-01-30T15:32:40;100421.66;;;6.27;51.71
78317;BME280;67572;50.930;18.276;2024-01-30T15:35:44;100423.06;;;6.09;52.57
78317;BME280;67572;50.930;18.276;2024-01-30T15:38:47;100413.28;;;6.13;52.17
78317;BME280;67572;50.930;18.276;2024-01-30T15:41:50;100409.13;;;6.04;52.33
78317;BME280;67572;50.930;18.276;2024-01-30T15:44:56;100414.75;;;5.94;52.85
78317;BME280;67572;50.930;18.276;2024-01-30T15:48:00;100416.50;;;5.93;53.60
78317;BME280;67572;50.930;18.276;2024-01-30T15:51:04;100418.00;;;6.02;52.88
78317;BME280;67572;50.930;18.276;2024-01-30T15:54:07;100419.09;;;5.95;53.49
78317;BME280;67572;50.930;18.276;2024-01-30T15:57:11;100427.16;;;5.89;53.37
78317;BME280;67572;50.930;18.276;2024-01-30T16:00:16;100426.13;;;5.63;53.91
78317;BME280;67572;50.930;18.276;2024-01-30T16:03:19;100427.47;;;5.78;54.43
78317;BME280;67572;50.930;18.276;2024-01-30T16:06:22;100426.91;;;5.67;54.26